Private Wetterstation Sandau
Wetterdaten: Woche 18.06.12 - 24.06.12 (KW25)
Datum Zeit Temp. A. Feuchte A. Luftdruck Regen Wind Richtung Taupunkt Windchill
18.06.2012 00:00 16,9 C 67 % 1022,3 hPa 0,0 l/m 0,9 km/h (0 Bft) O 10,6 C 16,9 C
18.06.2012 01:00 15,7 C 71 % 1022,1 hPa 0,0 l/m 1,3 km/h (1 Bft) O 10,5 C 15,7 C
18.06.2012 02:00 15,0 C 72 % 1021,8 hPa 0,0 l/m 1,8 km/h (1 Bft) O-NO 9,9 C 15,0 C
18.06.2012 03:00 14,3 C 73 % 1021,3 hPa 0,0 l/m 2,9 km/h (1 Bft) O 9,5 C 14,3 C
18.06.2012 04:00 13,5 C 75 % 1020,6 hPa 0,0 l/m 4,0 km/h (1 Bft) O-NO 9,1 C 13,5 C
18.06.2012 05:00 13,3 C 76 % 1020,0 hPa 0,0 l/m 5,4 km/h (1 Bft) O 9,2 C 13,3 C
18.06.2012 06:00 15,4 C 71 % 1019,6 hPa 0,0 l/m 4,8 km/h (1 Bft) O 10,1 C 15,4 C
18.06.2012 07:00 16,3 C 71 % 1018,7 hPa 0,0 l/m 6,1 km/h (2 Bft) O-SO 11,1 C 16,3 C
18.06.2012 08:00 17,7 C 72 % 1018,1 hPa 0,0 l/m 6,3 km/h (2 Bft) SO 12,5 C 17,7 C
18.06.2012 09:00 21,6 C 59 % 1017,4 hPa 0,0 l/m 9,7 km/h (2 Bft) SO 13,2 C 21,6 C
18.06.2012 10:00 23,7 C 53 % 1015,8 hPa 0,0 l/m 13,5 km/h (3 Bft) O-NO 13,6 C 23,7 C
18.06.2012 11:00 25,5 C 50 % 1014,1 hPa 0,0 l/m 15,4 km/h (3 Bft) O-SO 14,4 C 25,5 C
18.06.2012 12:00 27,8 C 48 % 1012,9 hPa 0,0 l/m 14,2 km/h (3 Bft) SO 15,7 C 27,8 C
18.06.2012 13:00 29,8 C 46 % 1012,4 hPa 0,0 l/m 13,0 km/h (3 Bft) S-SO 16,8 C 29,8 C
18.06.2012 14:00 30,8 C 45 % 1011,6 hPa 0,0 l/m 20,6 km/h (4 Bft) S 17,3 C 30,8 C
18.06.2012 15:00 30,3 C 46 % 1011,2 hPa 0,0 l/m 15,3 km/h (3 Bft) S 17,2 C 30,3 C
18.06.2012 16:00 29,6 C 48 % 1011,2 hPa 0,0 l/m 15,0 km/h (3 Bft) S-SW 17,3 C 29,6 C
18.06.2012 17:00 29,6 C 46 % 1011,3 hPa 0,0 l/m 24,6 km/h (4 Bft) W-SW 16,8 C 29,6 C
18.06.2012 18:00 28,1 C 43 % 1012,6 hPa 0,0 l/m 17,8 km/h (3 Bft) W-SW 14,2 C 28,1 C
18.06.2012 19:00 24,5 C 46 % 1014,4 hPa 0,0 l/m 25,2 km/h (4 Bft) W 12,2 C 24,5 C
18.06.2012 20:00 22,0 C 51 % 1015,7 hPa 0,0 l/m 18,5 km/h (3 Bft) W-NW 11,2 C 22,0 C
18.06.2012 21:00 19,7 C 56 % 1017,5 hPa 0,0 l/m 8,0 km/h (2 Bft) W-NW 10,6 C 19,7 C
18.06.2012 22:00 17,7 C 62 % 1019,0 hPa 0,0 l/m 3,0 km/h (1 Bft) N 10,4 C 17,7 C
18.06.2012 23:00 16,8 C 64 % 1019,7 hPa 0,0 l/m 2,3 km/h (1 Bft) W 9,9 C 16,8 C
19.06.2012 00:00 16,6 C 65 % 1020,5 hPa 0,0 l/m 0,1 km/h (0 Bft) W-NW 10,0 C 16,6 C
19.06.2012 01:00 15,6 C 68 % 1020,9 hPa 0,0 l/m 1,1 km/h (0 Bft) N-NO 9,7 C 15,6 C
19.06.2012 02:00 15,2 C 70 % 1021,2 hPa 0,0 l/m 1,1 km/h (1 Bft) NW 9,7 C 15,2 C
19.06.2012 03:00 14,5 C 71 % 1021,9 hPa 0,0 l/m 0,6 km/h (0 Bft) SW 9,4 C 14,5 C
19.06.2012 04:00 13,6 C 74 % 1022,3 hPa 0,0 l/m 0,2 km/h (0 Bft) S 9,1 C 13,6 C
19.06.2012 05:00 13,6 C 76 % 1022,5 hPa 0,0 l/m 0,2 km/h (0 Bft) SO 9,4 C 13,6 C
19.06.2012 06:00 16,9 C 70 % 1022,6 hPa 0,0 l/m 2,0 km/h (1 Bft) S-SW 11,3 C 16,9 C
19.06.2012 07:00 18,2 C 66 % 1022,6 hPa 0,0 l/m 1,2 km/h (1 Bft) W-NW 11,9 C 18,2 C
19.06.2012 08:00 19,4 C 62 % 1022,7 hPa 0,0 l/m 2,1 km/h (1 Bft) W 11,9 C 19,4 C
19.06.2012 09:00 20,2 C 56 % 1022,9 hPa 0,0 l/m 1,4 km/h (1 Bft) W-NW 11,2 C 20,2 C
19.06.2012 10:00 21,5 C 53 % 1023,0 hPa 0,0 l/m 3,6 km/h (1 Bft) W-SW 11,4 C 21,5 C
19.06.2012 11:00 22,3 C 49 % 1022,8 hPa 0,0 l/m 2,5 km/h (1 Bft) W-SW 11,1 C 22,3 C
19.06.2012 12:00 22,5 C 47 % 1022,4 hPa 0,0 l/m 2,0 km/h (1 Bft) W-SW 10,8 C 22,5 C
19.06.2012 13:00 23,7 C 45 % 1022,0 hPa 0,0 l/m 2,0 km/h (1 Bft) W-NW 10,9 C 23,7 C
19.06.2012 14:00 23,7 C 45 % 1021,5 hPa 0,0 l/m 3,2 km/h (1 Bft) O 10,8 C 23,7 C
19.06.2012 15:00 23,8 C 44 % 1021,3 hPa 0,0 l/m 3,2 km/h (1 Bft) O-SO 10,7 C 23,8 C
19.06.2012 16:00 23,9 C 44 % 1020,7 hPa 0,0 l/m 2,8 km/h (1 Bft) O 10,9 C 23,9 C
19.06.2012 17:00 24,1 C 44 % 1020,2 hPa 0,0 l/m 3,9 km/h (1 Bft) O-NO 11,1 C 24,1 C
19.06.2012 18:00 23,4 C 47 % 1019,6 hPa 0,0 l/m 5,6 km/h (1 Bft) O 11,4 C 23,4 C
19.06.2012 19:00 22,6 C 50 % 1019,6 hPa 0,0 l/m 2,0 km/h (1 Bft) O-NO 11,6 C 22,6 C
19.06.2012 20:00 21,6 C 55 % 1019,6 hPa 0,0 l/m 1,8 km/h (1 Bft) O 12,0 C 21,6 C
19.06.2012 21:00 20,0 C 64 % 1019,5 hPa 0,5 l/m 2,8 km/h (1 Bft) O-NO 13,1 C 20,0 C
19.06.2012 22:00 18,8 C 69 % 1019,2 hPa 0,0 l/m 2,5 km/h (1 Bft) O-NO 13,0 C 18,8 C
19.06.2012 23:00 18,3 C 71 % 1019,3 hPa 0,0 l/m 1,8 km/h (1 Bft) NO 12,9 C 18,3 C
20.06.2012 00:00 18,0 C 72 % 1019,3 hPa 0,0 l/m 3,7 km/h (1 Bft) O-NO 12,8 C 18,0 C
20.06.2012 01:00 17,7 C 74 % 1019,4 hPa 0,0 l/m 4,2 km/h (1 Bft) O 13,0 C 17,7 C
20.06.2012 02:00 17,0 C 78 % 1018,8 hPa 0,0 l/m 6,4 km/h (2 Bft) O 13,2 C 17,0 C
20.06.2012 03:00 16,8 C 81 % 1018,3 hPa 0,0 l/m 5,0 km/h (1 Bft) O 13,5 C 16,8 C
20.06.2012 04:00 16,3 C 83 % 1017,5 hPa 0,0 l/m 5,1 km/h (1 Bft) O 13,3 C 16,3 C
20.06.2012 05:00 15,9 C 84 % 1017,2 hPa 0,0 l/m 4,9 km/h (1 Bft) O-NO 13,2 C 15,9 C
20.06.2012 06:00 15,9 C 85 % 1017,3 hPa 0,0 l/m 4,0 km/h (1 Bft) O 13,5 C 15,9 C
20.06.2012 07:00 16,1 C 86 % 1016,9 hPa 1,0 l/m 5,0 km/h (1 Bft) O-NO 13,8 C 16,1 C
20.06.2012 08:00 15,9 C 87 % 1017,1 hPa 0,5 l/m 6,9 km/h (2 Bft) O 13,7 C 15,9 C
20.06.2012 09:00 16,0 C 87 % 1017,3 hPa 0,0 l/m 8,0 km/h (2 Bft) O-NO 13,9 C 16,0 C
20.06.2012 10:00 16,1 C 87 % 1017,1 hPa 0,0 l/m 7,5 km/h (2 Bft) O-NO 14,0 C 16,1 C
20.06.2012 11:00 16,1 C 88 % 1017,3 hPa 1,0 l/m 7,9 km/h (2 Bft) O-NO 14,1 C 16,1 C
20.06.2012 12:00 15,9 C 89 % 1017,3 hPa 2,1 l/m 8,3 km/h (2 Bft) O-NO 14,1 C 15,9 C
20.06.2012 13:00 15,9 C 89 % 1017,1 hPa 1,6 l/m 9,4 km/h (2 Bft) O-NO 14,1 C 15,9 C
20.06.2012 14:00 16,2 C 88 % 1016,7 hPa 0,5 l/m 8,0 km/h (2 Bft) O 14,2 C 16,2 C
20.06.2012 15:00 16,3 C 87 % 1016,6 hPa 0,5 l/m 6,9 km/h (2 Bft) O-NO 14,1 C 16,3 C
20.06.2012 16:00 16,0 C 88 % 1016,5 hPa 1,0 l/m 9,0 km/h (2 Bft) O-NO 13,9 C 16,0 C
20.06.2012 17:00 15,7 C 89 % 1016,5 hPa 0,5 l/m 7,2 km/h (2 Bft) O-NO 13,9 C 15,7 C
20.06.2012 18:00 15,3 C 88 % 1016,5 hPa 0,5 l/m 9,5 km/h (2 Bft) O 13,4 C 15,3 C
20.06.2012 19:00 14,9 C 89 % 1016,4 hPa 0,5 l/m 6,6 km/h (2 Bft) O-NO 13,2 C 14,9 C
20.06.2012 20:00 14,9 C 90 % 1016,4 hPa 0,0 l/m 6,0 km/h (2 Bft) O-NO 13,3 C 14,9 C
20.06.2012 21:00 14,9 C 90 % 1016,2 hPa 0,0 l/m 7,4 km/h (2 Bft) O-NO 13,3 C 14,9 C
20.06.2012 22:00 14,6 C 90 % 1016,2 hPa 0,0 l/m 8,3 km/h (2 Bft) O-NO 13,0 C 14,6 C
20.06.2012 23:00 14,5 C 89 % 1016,3 hPa 0,0 l/m 5,6 km/h (1 Bft) O-NO 12,7 C 14,5 C
21.06.2012 00:00 14,3 C 89 % 1016,3 hPa 0,0 l/m 9,1 km/h (2 Bft) O-NO 12,5 C 14,3 C
21.06.2012 01:00 14,1 C 89 % 1015,8 hPa 0,0 l/m 6,5 km/h (2 Bft) O-NO 12,3 C 14,1 C
21.06.2012 02:00 14,1 C 89 % 1015,5 hPa 0,0 l/m 3,8 km/h (1 Bft) O-NO 12,3 C 14,1 C
21.06.2012 03:00 14,3 C 90 % 1015,2 hPa 0,0 l/m 4,1 km/h (1 Bft) N-NO 12,5 C 14,3 C
21.06.2012 04:00 14,4 C 90 % 1014,9 hPa 0,0 l/m 5,5 km/h (1 Bft) O-NO 12,7 C 14,4 C
21.06.2012 05:00 14,4 C 88 % 1014,8 hPa 0,0 l/m 3,9 km/h (1 Bft) O-NO 12,4 C 14,4 C
21.06.2012 06:00 14,3 C 88 % 1014,8 hPa 0,0 l/m 4,9 km/h (1 Bft) O-NO 12,4 C 14,3 C
21.06.2012 07:00 14,4 C 88 % 1014,7 hPa 0,0 l/m 3,5 km/h (1 Bft) N-NO 12,4 C 14,4 C
21.06.2012 08:00 14,7 C 85 % 1014,8 hPa 0,0 l/m 5,2 km/h (1 Bft) O-NO 12,3 C 14,7 C
21.06.2012 09:00 14,9 C 83 % 1014,8 hPa 0,0 l/m 5,4 km/h (1 Bft) N-NO 12,1 C 14,9 C
21.06.2012 10:00 15,9 C 80 % 1014,5 hPa 0,0 l/m 9,0 km/h (2 Bft) NO 12,5 C 15,9 C
21.06.2012 11:00 17,8 C 73 % 1014,5 hPa 0,0 l/m 9,6 km/h (2 Bft) O 12,8 C 17,8 C
21.06.2012 12:00 17,2 C 73 % 1014,7 hPa 0,0 l/m 5,9 km/h (2 Bft) O-NO 12,4 C 17,2 C
21.06.2012 13:00 16,8 C 77 % 1014,5 hPa 0,0 l/m 4,3 km/h (1 Bft) O 12,7 C 16,8 C
21.06.2012 14:00 18,0 C 76 % 1013,7 hPa 0,0 l/m 10,7 km/h (2 Bft) O-NO 13,6 C 18,0 C
21.06.2012 15:00 17,6 C 76 % 1013,8 hPa 0,0 l/m 4,8 km/h (1 Bft) O-NO 13,3 C 17,6 C
21.06.2012 16:00 17,9 C 76 % 1013,6 hPa 0,0 l/m 5,2 km/h (1 Bft) SO 13,6 C 17,9 C
21.06.2012 17:00 17,9 C 77 % 1013,5 hPa 0,0 l/m 1,8 km/h (1 Bft) O-SO 13,7 C 17,9 C
21.06.2012 18:00 17,3 C 78 % 1013,2 hPa 0,0 l/m 3,2 km/h (1 Bft) O-SO 13,5 C 17,3 C
21.06.2012 19:00 17,0 C 80 % 1013,0 hPa 0,0 l/m 4,0 km/h (1 Bft) SO 13,6 C 17,0 C
21.06.2012 20:00 16,8 C 82 % 1013,0 hPa 0,0 l/m 1,7 km/h (1 Bft) SO 13,7 C 16,8 C
21.06.2012 21:00 16,4 C 83 % 1012,9 hPa 0,0 l/m 2,0 km/h (1 Bft) S-SO 13,5 C 16,4 C
21.06.2012 22:00 16,2 C 85 % 1013,1 hPa 0,0 l/m 1,9 km/h (1 Bft) SO 13,6 C 16,2 C
21.06.2012 23:00 16,0 C 86 % 1013,3 hPa 0,0 l/m 1,8 km/h (1 Bft) SO 13,5 C 16,0 C
22.06.2012 00:00 15,8 C 87 % 1013,1 hPa 0,0 l/m 0,5 km/h (0 Bft) SO 13,6 C 15,8 C
22.06.2012 01:00 15,8 C 87 % 1013,2 hPa 0,0 l/m 1,4 km/h (1 Bft) O-SO 13,6 C 15,8 C
22.06.2012 02:00 15,8 C 87 % 1013,1 hPa 0,0 l/m 0,8 km/h (0 Bft) SO 13,6 C 15,8 C
22.06.2012 03:00 15,6 C 88 % 1012,8 hPa 0,0 l/m 0,9 km/h (0 Bft) O 13,6 C 15,6 C
22.06.2012 04:00 15,4 C 88 % 1012,6 hPa 0,0 l/m 1,3 km/h (1 Bft) O-SO 13,5 C 15,4 C
22.06.2012 05:00 15,4 C 89 % 1013,1 hPa 0,0 l/m 2,0 km/h (1 Bft) S-SO 13,6 C 15,4 C
22.06.2012 06:00 15,8 C 89 % 1013,6 hPa 0,0 l/m 3,7 km/h (1 Bft) SW 14,0 C 15,8 C
22.06.2012 07:00 16,5 C 88 % 1014,0 hPa 0,0 l/m 5,6 km/h (1 Bft) W-SW 14,5 C 16,5 C
22.06.2012 08:00 18,3 C 82 % 1014,6 hPa 0,0 l/m 11,1 km/h (2 Bft) W-NW 15,0 C 18,3 C
22.06.2012 09:00 20,1 C 69 % 1015,2 hPa 0,0 l/m 13,1 km/h (3 Bft) W-NW 14,1 C 20,1 C
22.06.2012 10:00 21,1 C 59 % 1015,8 hPa 0,0 l/m 9,7 km/h (2 Bft) W 12,8 C 21,1 C
22.06.2012 11:00 21,7 C 55 % 1016,4 hPa 0,0 l/m 14,5 km/h (3 Bft) W-SW 12,2 C 21,7 C
22.06.2012 12:00 22,7 C 50 % 1016,6 hPa 0,0 l/m 13,1 km/h (3 Bft) W-NW 11,7 C 22,7 C
22.06.2012 13:00 23,6 C 44 % 1016,8 hPa 0,0 l/m 15,4 km/h (3 Bft) W-SW 10,7 C 23,6 C
22.06.2012 14:00 24,0 C 43 % 1016,9 hPa 0,0 l/m 8,3 km/h (2 Bft) W 10,7 C 24,0 C
22.06.2012 15:00 23,3 C 45 % 1017,2 hPa 0,0 l/m 5,9 km/h (2 Bft) W 10,6 C 23,3 C
22.06.2012 16:00 24,0 C 45 % 1017,2 hPa 0,0 l/m 10,2 km/h (2 Bft) W 11,2 C 24,0 C
22.06.2012 17:00 24,6 C 41 % 1017,4 hPa 0,0 l/m 12,8 km/h (3 Bft) W-SW 10,5 C 24,6 C
22.06.2012 18:00 23,4 C 43 % 1017,6 hPa 0,0 l/m 14,4 km/h (3 Bft) W 10,0 C 23,4 C
22.06.2012 19:00 23,1 C 43 % 1018,3 hPa 0,0 l/m 10,9 km/h (2 Bft) W-NW 9,8 C 23,1 C
22.06.2012 20:00 21,7 C 45 % 1018,9 hPa 0,0 l/m 7,1 km/h (2 Bft) W-NW 9,2 C 21,7 C
22.06.2012 21:00 20,1 C 50 % 1019,3 hPa 0,0 l/m 3,0 km/h (1 Bft) W-SW 9,4 C 20,1 C
22.06.2012 22:00 18,8 C 54 % 1019,9 hPa 0,0 l/m 5,7 km/h (1 Bft) W-SW 9,2 C 18,8 C
22.06.2012 23:00 17,9 C 57 % 1020,2 hPa 0,0 l/m 3,7 km/h (1 Bft) S-SW 9,1 C 17,9 C
23.06.2012 00:00 16,9 C 60 % 1020,3 hPa 0,0 l/m 3,2 km/h (1 Bft) SW 9,0 C 16,9 C
23.06.2012 01:00 16,4 C 62 % 1020,5 hPa 0,0 l/m 3,1 km/h (1 Bft) S-SW 9,0 C 16,4 C
23.06.2012 02:00 15,7 C 65 % 1020,8 hPa 0,0 l/m 6,7 km/h (2 Bft) W-SW 9,1 C 15,7 C
23.06.2012 03:00 15,0 C 67 % 1020,9 hPa 0,0 l/m 5,6 km/h (1 Bft) W-SW 9,0 C 15,0 C
23.06.2012 04:00 14,4 C 69 % 1021,3 hPa 0,0 l/m 3,1 km/h (1 Bft) SW 8,9 C 14,4 C
23.06.2012 05:00 14,3 C 71 % 1021,4 hPa 0,0 l/m 5,0 km/h (1 Bft) S 9,2 C 14,3 C
23.06.2012 06:00 17,3 C 65 % 1021,8 hPa 0,0 l/m 4,9 km/h (1 Bft) S 10,7 C 17,3 C
23.06.2012 07:00 18,2 C 62 % 1022,0 hPa 0,0 l/m 7,3 km/h (2 Bft) S 10,9 C 18,2 C
23.06.2012 08:00 19,1 C 59 % 1022,2 hPa 0,0 l/m 8,7 km/h (2 Bft) S-SW 10,8 C 19,1 C
23.06.2012 09:00 20,4 C 53 % 1022,2 hPa 0,0 l/m 13,3 km/h (3 Bft) SW 10,5 C 20,4 C
23.06.2012 10:00 21,2 C 49 % 1022,0 hPa 0,0 l/m 19,0 km/h (3 Bft) W-SW 10,2 C 21,2 C
23.06.2012 11:00 20,1 C 69 % 1021,9 hPa 0,0 l/m 15,8 km/h (3 Bft) SW 13,5 C 20,1 C
23.06.2012 12:00 20,3 C 71 % 1021,7 hPa 0,0 l/m 18,1 km/h (3 Bft) W-SW 14,7 C 20,3 C
23.06.2012 13:00 18,8 C 65 % 1022,3 hPa 0,0 l/m 16,8 km/h (3 Bft) W-SW 12,2 C 18,8 C
23.06.2012 14:00 19,7 C 59 % 1022,3 hPa 0,0 l/m 12,2 km/h (2 Bft) W 11,5 C 19,7 C
23.06.2012 15:00 21,1 C 53 % 1022,0 hPa 0,0 l/m 14,9 km/h (3 Bft) W 11,2 C 21,1 C
23.06.2012 16:00 22,3 C 47 % 1021,7 hPa 0,0 l/m 13,6 km/h (3 Bft) W-SW 10,4 C 22,3 C
23.06.2012 17:00 21,7 C 47 % 1021,6 hPa 0,0 l/m 10,0 km/h (2 Bft) W-SW 9,8 C 21,7 C
23.06.2012 18:00 21,7 C 48 % 1021,6 hPa 0,0 l/m 9,2 km/h (2 Bft) W-SW 10,1 C 21,7 C
23.06.2012 19:00 22,2 C 46 % 1021,8 hPa 0,0 l/m 7,6 km/h (2 Bft) W 10,1 C 22,2 C
23.06.2012 20:00 21,1 C 47 % 1021,9 hPa 0,0 l/m 5,5 km/h (1 Bft) W 9,3 C 21,1 C
23.06.2012 21:00 19,3 C 52 % 1022,2 hPa 0,0 l/m 2,4 km/h (1 Bft) W 9,2 C 19,3 C
23.06.2012 22:00 18,0 C 56 % 1022,5 hPa 0,0 l/m 1,6 km/h (1 Bft) W-SW 9,1 C 18,0 C
23.06.2012 23:00 16,5 C 62 % 1022,4 hPa 0,0 l/m 0,0 km/h (0 Bft) N 9,1 C 16,5 C
24.06.2012 00:00 15,3 C 67 % 1022,3 hPa 0,0 l/m 0,0 km/h (0 Bft) N 9,1 C 15,3 C
24.06.2012 01:00 15,1 C 69 % 1022,3 hPa 0,0 l/m 0,0 km/h (0 Bft) N 9,4 C 15,1 C
24.06.2012 02:00 14,9 C 69 % 1021,8 hPa 0,0 l/m 0,0 km/h (0 Bft) N 9,2 C 14,9 C
24.06.2012 03:00 14,6 C 70 % 1021,5 hPa 0,0 l/m 0,0 km/h (0 Bft) N 9,1 C 14,6 C
24.06.2012 04:00 14,6 C 72 % 1020,7 hPa 0,0 l/m 0,0 km/h (0 Bft) N 9,5 C 14,6 C
24.06.2012 05:00 14,3 C 72 % 1020,3 hPa 0,0 l/m 0,0 km/h (0 Bft) N 9,4 C 14,3 C
24.06.2012 06:00 14,3 C 75 % 1019,7 hPa 0,0 l/m 0,0 km/h (0 Bft) N 9,9 C 14,3 C
24.06.2012 07:00 15,2 C 77 % 1018,9 hPa 0,0 l/m 0,0 km/h (0 Bft) N 11,2 C 15,2 C
24.06.2012 08:00 17,1 C 73 % 1017,7 hPa 0,0 l/m 0,0 km/h (0 Bft) N 12,2 C 17,1 C
24.06.2012 09:00 19,5 C 64 % 1016,6 hPa 0,0 l/m 4,0 km/h (1 Bft) S 12,5 C 19,5 C
24.06.2012 10:00 21,1 C 59 % 1015,2 hPa 0,0 l/m 15,4 km/h (3 Bft) S 12,7 C 21,1 C
24.06.2012 11:00 21,9 C 52 % 1014,0 hPa 0,0 l/m 14,6 km/h (3 Bft) S-SW 11,7 C 21,9 C
24.06.2012 12:00 21,6 C 52 % 1013,2 hPa 0,0 l/m 11,3 km/h (2 Bft) S-SW 11,4 C 21,6 C
24.06.2012 13:00 21,5 C 53 % 1012,1 hPa 0,0 l/m 15,0 km/h (3 Bft) SW 11,4 C 21,5 C
24.06.2012 14:00 22,0 C 49 % 1010,9 hPa 0,0 l/m 15,9 km/h (3 Bft) S 10,8 C 22,0 C
24.06.2012 15:00 21,6 C 53 % 1009,8 hPa 0,0 l/m 10,8 km/h (2 Bft) S-SW 11,6 C 21,6 C
24.06.2012 16:00 20,7 C 61 % 1008,5 hPa 0,0 l/m 6,7 km/h (2 Bft) SW 12,9 C 20,7 C
24.06.2012 17:00 19,8 C 69 % 1007,7 hPa 1,0 l/m 7,5 km/h (2 Bft) S-SW 13,8 C 19,8 C
24.06.2012 18:00 18,3 C 75 % 1007,5 hPa 1,6 l/m 10,2 km/h (2 Bft) SW 13,8 C 18,3 C
24.06.2012 19:00 16,8 C 79 % 1007,2 hPa 2,6 l/m 12,2 km/h (2 Bft) S-SO 13,1 C 16,8 C
24.06.2012 20:00 14,9 C 79 % 1007,3 hPa 0,0 l/m 11,1 km/h (2 Bft) W-SW 11,2 C 14,9 C
24.06.2012 21:00 14,5 C 80 % 1006,7 hPa 0,0 l/m 10,1 km/h (2 Bft) SW 11,1 C 14,5 C
24.06.2012 22:00 14,3 C 82 % 1006,3 hPa 0,0 l/m 13,2 km/h (3 Bft) S-SW 11,3 C 14,3 C
24.06.2012 23:00 14,5 C 81 % 1006,4 hPa 0,0 l/m 16,5 km/h (3 Bft) SW 11,3 C 14,5 C
Min-Datum _ 18.06.12 22.06.12 24.06.12 - 18.06.12 - 24.06.12 18.06.12
_ Min-Zeit 05:11 17:36 22:56 - 00:01 - 00:31 05:11
Minimum _ 13,1 C 40 % 1006,0 hPa - 0,0 km/h (0 Bft) - 8,6 C 13,1 C
Max-Datum _ 18.06.12 20.06.12 19.06.12 24.06.12 18.06.12 - 18.06.12 18.06.12
_ Max-Zeit 15:01 19:31 09:56 19:36 19:01 - 16:36 15:01
Maximum _ 31,2 C 90 % 1023,2 hPa 2,6 l/m 36,7 km/h
W (5 Bft)
- 18,2 C 31,2 C
Durchschnitt _ 18,5 C 68 % 1017,3 hPa #15,5 l/m 6,8 km/h (2 Bft) O-NO 11,9 C 18,5 C
(c) by David Heller